createdAt,value
2019-04-06T00:01:46.256Z,34.90
2019-04-06T00:04:15.672Z,33.23
2019-04-06T00:06:45.051Z,38.58
2019-04-06T00:09:14.409Z,44.27
2019-04-06T00:11:43.752Z,40.97
2019-04-06T00:14:12.791Z,43.85
2019-04-06T00:16:41.852Z,39.73
2019-04-06T00:19:11.547Z,36.53
2019-04-06T00:21:40.577Z,42.83
2019-04-06T00:24:09.869Z,41.88
2019-04-06T00:26:38.838Z,44.95
2019-04-06T00:29:07.880Z,40.20
2019-04-06T00:31:43.984Z,38.43
2019-04-06T00:34:13.040Z,41.40
2019-04-06T00:36:42.591Z,42.53
2019-04-06T00:39:11.628Z,39.88
2019-04-06T00:41:41.069Z,44.03
2019-04-06T00:44:10.701Z,43.55
2019-04-06T00:46:40.099Z,43.38
2019-04-06T00:49:09.492Z,41.37
2019-04-06T00:51:38.788Z,44.30
2019-04-06T00:54:07.841Z,44.40
2019-04-06T00:56:36.936Z,41.80
2019-04-06T00:59:05.981Z,38.98
2019-04-06T01:01:35.043Z,42.05
2019-04-06T01:04:04.473Z,43.15
2019-04-06T01:06:34.181Z,44.75
2019-04-06T01:09:03.807Z,41.00
2019-04-06T01:11:33.532Z,42.00
2019-04-06T01:14:02.588Z,43.30
2019-04-06T01:16:32.197Z,43.90
2019-04-06T01:19:01.444Z,42.03
2019-04-06T01:21:30.810Z,38.63
2019-04-06T01:24:00.200Z,46.13
2019-04-06T01:26:29.484Z,46.15
2019-04-06T01:28:58.797Z,42.23
2019-04-06T01:31:28.106Z,44.10
2019-04-06T01:33:58.996Z,45.75
2019-04-06T01:36:28.435Z,45.03
2019-04-06T01:38:57.736Z,46.00
2019-04-06T01:41:26.779Z,42.27
2019-04-06T01:43:56.133Z,42.53
2019-04-06T01:46:25.433Z,40.28
2019-04-06T01:48:54.459Z,40.78
2019-04-06T01:51:23.532Z,43.43
2019-04-06T01:53:52.771Z,46.33
2019-04-06T01:56:22.428Z,52.67
2019-04-06T01:58:52.067Z,42.70
2019-04-06T02:01:25.397Z,39.83
2019-04-06T02:03:54.427Z,49.00
2019-04-06T02:06:23.487Z,43.58
2019-04-06T02:08:52.923Z,46.00
2019-04-06T02:11:22.312Z,44.60
2019-04-06T02:13:51.617Z,40.75
2019-04-06T02:16:21.048Z,40.95
2019-04-06T02:18:50.315Z,44.90
2019-04-06T02:21:20.150Z,47.27
2019-04-06T02:23:50.040Z,46.92
2019-04-06T02:26:29.626Z,42.35
2019-04-06T02:28:51.000Z,34.78
2019-04-06T02:31:45.599Z,44.30
2019-04-06T02:34:45.410Z,48.45
2019-04-06T02:37:41.193Z,43.28
2019-04-06T02:40:32.426Z,45.38
2019-04-06T02:43:05.638Z,46.45
2019-04-06T02:45:35.035Z,44.53
2019-04-06T02:48:04.001Z,40.83
2019-04-06T02:50:33.364Z,41.30
2019-04-06T02:53:02.413Z,46.30
2019-04-06T02:55:31.403Z,46.18
2019-04-06T02:58:01.116Z,52.17
2019-04-06T03:00:30.525Z,48.27
2019-04-06T03:03:00.235Z,42.75
2019-04-06T03:05:29.556Z,44.20
2019-04-06T03:07:58.607Z,42.75
2019-04-06T03:10:28.053Z,43.73
2019-04-06T03:12:57.432Z,45.83
2019-04-06T03:15:26.591Z,42.33
2019-04-06T03:17:55.670Z,47.67
2019-04-06T03:20:24.944Z,44.30
2019-04-06T03:22:54.009Z,41.88
2019-04-06T03:25:23.473Z,44.85
2019-04-06T03:27:52.947Z,48.25
2019-04-06T03:30:21.991Z,48.42
2019-04-06T03:32:51.945Z,52.62
2019-04-06T03:35:21.053Z,48.80
2019-04-06T03:37:50.124Z,46.68
2019-04-06T03:40:19.448Z,50.45
2019-04-06T03:42:48.503Z,46.53
2019-04-06T03:45:17.523Z,56.75
2019-04-06T03:47:46.957Z,45.43
2019-04-06T03:50:15.997Z,51.15
2019-04-06T03:52:45.348Z,51.68
2019-04-06T03:55:14.763Z,52.88
2019-04-06T03:57:44.205Z,55.48
2019-04-06T04:00:13.341Z,54.20
2019-04-06T04:02:43.323Z,50.28
2019-04-06T04:05:12.951Z,47.05
2019-04-06T04:07:42.323Z,46.15
2019-04-06T04:10:16.756Z,51.23
2019-04-06T04:12:45.759Z,49.90
2019-04-06T04:15:15.248Z,45.40
2019-04-06T04:17:44.601Z,48.78
2019-04-06T04:20:14.093Z,47.35
2019-04-06T04:22:44.161Z,52.00
2019-04-06T04:25:13.568Z,59.35
2019-04-06T04:27:42.984Z,57.37
2019-04-06T04:30:14.937Z,57.10
2019-04-06T04:32:43.318Z,55.83
2019-04-06T04:35:12.858Z,52.03
2019-04-06T04:37:42.029Z,49.35
2019-04-06T04:40:11.726Z,57.25
2019-04-06T04:42:40.709Z,56.23
2019-04-06T04:45:09.752Z,57.17
2019-04-06T04:47:39.208Z,52.00
2019-04-06T04:50:08.815Z,53.60
2019-04-06T04:52:38.117Z,51.17
2019-04-06T04:55:07.970Z,53.93
2019-04-06T04:57:40.874Z,59.58
2019-04-06T05:00:08.276Z,62.95
2019-04-06T05:02:37.563Z,58.85
2019-04-06T05:05:09.186Z,68.33
2019-04-06T05:07:37.805Z,60.85
2019-04-06T05:10:07.893Z,61.20
2019-04-06T05:12:37.315Z,61.70
2019-04-06T05:15:08.717Z,57.45
2019-04-06T05:17:37.684Z,51.58
2019-04-06T05:20:08.223Z,57.25
2019-04-06T05:22:37.277Z,53.02
2019-04-06T05:25:07.096Z,59.65
2019-04-06T05:27:36.400Z,54.05
2019-04-06T05:30:08.230Z,55.83
2019-04-06T05:32:37.555Z,55.93
2019-04-06T05:35:06.960Z,55.00
2019-04-06T05:37:35.921Z,54.30
2019-04-06T05:40:05.561Z,53.85
2019-04-06T05:42:34.860Z,57.67
2019-04-06T05:45:04.178Z,55.08
2019-04-06T05:47:33.123Z,56.48
2019-04-06T05:50:02.167Z,63.87
2019-04-06T05:52:31.178Z,52.30
2019-04-06T05:55:00.540Z,58.45
2019-04-06T05:57:32.141Z,59.30
2019-04-06T06:00:01.540Z,59.30
2019-04-06T06:02:30.583Z,56.58
2019-04-06T06:05:01.221Z,55.05
2019-04-06T06:07:31.027Z,55.97
2019-04-06T06:10:00.451Z,54.58
2019-04-06T06:12:29.733Z,57.05
2019-04-06T06:14:58.774Z,59.03
2019-04-06T06:17:28.027Z,55.00
2019-04-06T06:19:57.141Z,51.28
2019-04-06T06:22:26.617Z,57.88
2019-04-06T06:24:56.021Z,54.30
2019-04-06T06:27:25.377Z,52.73
2019-04-06T06:29:54.723Z,55.12
2019-04-06T06:32:23.768Z,54.75
2019-04-06T06:34:53.122Z,46.43
2019-04-06T06:37:22.416Z,56.70
2019-04-06T06:39:51.766Z,52.85
2019-04-06T06:42:21.626Z,56.37
2019-04-06T06:44:50.737Z,51.00
2019-04-06T06:47:19.957Z,53.80
2019-04-06T06:49:49.375Z,57.45
2019-04-06T06:52:18.419Z,52.98
2019-04-06T06:54:47.721Z,52.75
2019-04-06T06:57:17.338Z,55.85
2019-04-06T06:59:46.755Z,53.78
2019-04-06T07:02:16.133Z,50.08
2019-04-06T07:04:45.428Z,55.70
2019-04-06T07:07:14.834Z,52.38
2019-04-06T07:09:43.795Z,55.05
2019-04-06T07:12:13.120Z,47.13
2019-04-06T07:14:42.428Z,53.05
2019-04-06T07:17:11.429Z,52.58
2019-04-06T07:19:41.024Z,49.63
2019-04-06T07:22:10.419Z,53.83
2019-04-06T07:24:39.822Z,51.53
2019-04-06T07:27:09.325Z,50.60
2019-04-06T07:29:38.363Z,53.55
2019-04-06T07:32:07.726Z,50.50
2019-04-06T07:34:37.151Z,50.00
2019-04-06T07:37:06.836Z,54.60
2019-04-06T07:39:36.829Z,45.45
2019-04-06T07:42:05.871Z,50.43
2019-04-06T07:44:35.147Z,53.15
2019-04-06T07:47:04.206Z,46.70
2019-04-06T07:49:33.475Z,43.70
2019-04-06T07:52:02.520Z,45.40
2019-04-06T07:54:32.145Z,47.73
2019-04-06T07:57:01.204Z,47.07
2019-04-06T07:59:30.841Z,57.87
2019-04-06T08:01:59.879Z,41.43
2019-04-06T08:04:29.288Z,46.47
2019-04-06T08:06:58.940Z,44.17
2019-04-06T08:09:28.543Z,47.57
2019-04-06T08:11:57.870Z,42.40
2019-04-06T08:14:26.933Z,42.07
2019-04-06T08:16:56.179Z,40.17
2019-04-06T08:19:25.853Z,45.63
2019-04-06T08:21:54.896Z,41.03
2019-04-06T08:24:24.144Z,41.20
2019-04-06T08:26:53.482Z,46.90
2019-04-06T08:29:22.675Z,44.53
2019-04-06T08:31:51.612Z,43.30
2019-04-06T08:34:21.524Z,37.83
2019-04-06T08:36:51.101Z,50.70
2019-04-06T08:39:20.471Z,44.67
2019-04-06T08:41:49.780Z,32.97
2019-04-06T08:44:18.739Z,39.30
2019-04-06T08:46:48.567Z,39.77
2019-04-06T08:49:17.896Z,36.73
2019-04-06T08:51:47.320Z,38.53
2019-04-06T08:54:17.510Z,34.53
2019-04-06T08:56:47.262Z,37.37
2019-04-06T08:59:16.534Z,31.90
2019-04-06T09:01:45.804Z,44.40
2019-04-06T09:04:15.063Z,38.50
2019-04-06T09:06:44.304Z,38.80
2019-04-06T09:09:13.324Z,31.00
2019-04-06T09:11:42.979Z,31.47
2019-04-06T09:14:12.917Z,28.10
2019-04-06T09:16:42.299Z,27.87
2019-04-06T09:19:11.286Z,30.63
2019-04-06T09:21:41.029Z,28.00
2019-04-06T09:24:10.405Z,29.90
2019-04-06T09:26:40.133Z,31.63
2019-04-06T09:29:09.415Z,31.80
2019-04-06T09:31:38.778Z,29.90
2019-04-06T09:34:08.215Z,27.83
2019-04-06T09:36:37.823Z,31.07
2019-04-06T09:39:07.372Z,28.17
2019-04-06T09:41:36.400Z,21.50
2019-04-06T09:44:07.358Z,24.03
2019-04-06T09:47:01.131Z,22.27
2019-04-06T09:50:04.611Z,25.83
2019-04-06T09:52:40.380Z,23.83
2019-04-06T09:55:24.465Z,22.40
2019-04-06T09:58:04.710Z,34.90
2019-04-06T10:00:50.457Z,27.40
2019-04-06T10:03:42.301Z,32.47
2019-04-06T10:06:42.519Z,27.90
2019-04-06T10:09:30.620Z,29.63
2019-04-06T10:12:22.103Z,30.37
2019-04-06T10:15:07.771Z,35.07
2019-04-06T10:17:44.964Z,33.13
2019-04-06T10:20:27.777Z,32.40
2019-04-06T10:23:15.660Z,31.17
2019-04-06T10:26:01.085Z,47.10
2019-04-06T10:28:41.556Z,34.20
2019-04-06T10:31:28.488Z,32.37
2019-04-06T10:34:15.676Z,34.80
2019-04-06T10:36:57.772Z,31.17
2019-04-06T10:39:35.675Z,31.57
2019-04-06T10:42:11.737Z,28.57
2019-04-06T10:44:49.065Z,28.70
2019-04-06T10:47:45.446Z,30.03
2019-04-06T10:50:48.704Z,26.33
2019-04-06T10:53:43.279Z,24.20
2019-04-06T10:56:37.590Z,29.90
2019-04-06T10:59:17.896Z,26.37
2019-04-06T11:02:02.579Z,29.87
2019-04-06T11:04:53.869Z,31.93
2019-04-06T11:07:42.891Z,26.00
2019-04-06T11:10:30.108Z,27.20
2019-04-06T11:13:40.675Z,28.83
2019-04-06T11:16:41.843Z,21.57
2019-04-06T11:19:29.075Z,31.03
2019-04-06T11:22:05.137Z,20.30
2019-04-06T11:24:59.381Z,20.50
2019-04-06T11:27:57.027Z,22.00
2019-04-06T11:30:44.204Z,16.77
2019-04-06T11:33:42.275Z,15.87
2019-04-06T11:36:31.127Z,18.20
2019-04-06T11:39:12.758Z,21.70
2019-04-06T11:42:03.631Z,17.90
2019-04-06T11:44:50.677Z,19.87
2019-04-06T11:47:34.781Z,17.70
2019-04-06T11:50:23.300Z,17.30
2019-04-06T11:53:20.909Z,15.03
2019-04-06T11:55:59.230Z,17.50
2019-04-06T11:58:50.531Z,19.37
2019-04-06T12:01:49.256Z,17.80
2019-04-06T12:04:34.017Z,19.10
2019-04-06T12:07:28.575Z,24.90
2019-04-06T12:10:03.846Z,18.67
2019-04-06T12:12:56.277Z,19.87
2019-04-06T12:15:43.809Z,19.70
2019-04-06T12:18:32.252Z,19.20
2019-04-06T12:21:29.975Z,15.43
2019-04-06T12:24:17.008Z,16.57
2019-04-06T12:27:11.302Z,16.93
2019-04-06T12:29:56.712Z,18.40
2019-04-06T12:32:33.474Z,18.47
2019-04-06T12:35:21.023Z,23.10
2019-04-06T12:38:12.183Z,20.73
2019-04-06T12:41:02.179Z,23.77
2019-04-06T12:43:50.115Z,19.67
2019-04-06T12:46:30.535Z,21.70
2019-04-06T12:49:34.299Z,18.87
2019-04-06T12:52:35.124Z,21.17
2019-04-06T12:55:10.563Z,19.47
2019-04-06T12:57:56.491Z,22.33
2019-04-06T13:00:49.293Z,17.80
2019-04-06T13:03:29.483Z,19.43
2019-04-06T13:06:29.979Z,15.80
2019-04-06T13:09:18.742Z,19.33
2019-04-06T13:11:56.211Z,20.00
2019-04-06T13:14:32.595Z,15.23
2019-04-06T13:17:11.740Z,14.90
2019-04-06T13:19:50.645Z,22.33
2019-04-06T13:22:29.311Z,24.83
2019-04-06T13:25:20.485Z,18.67
2019-04-06T13:28:02.785Z,17.07
2019-04-06T13:31:02.209Z,14.03
2019-04-06T13:33:45.364Z,17.00
2019-04-06T13:36:36.599Z,16.43
2019-04-06T13:39:27.377Z,17.67
2019-04-06T13:42:08.627Z,15.93
2019-04-06T13:44:55.251Z,16.00
2019-04-06T13:47:40.396Z,20.80
2019-04-06T13:50:44.000Z,16.57
2019-04-06T13:53:30.714Z,14.57
2019-04-06T13:56:19.091Z,16.83
2019-04-06T13:59:02.733Z,17.00
2019-04-06T14:01:53.802Z,15.30
2019-04-06T14:04:39.631Z,19.67
2019-04-06T14:07:28.339Z,15.27
2019-04-06T14:10:12.682Z,17.30
2019-04-06T14:13:10.092Z,13.07
2019-04-06T14:15:59.140Z,13.60
2019-04-06T14:18:47.146Z,15.10
2019-04-06T14:21:32.726Z,14.83
2019-04-06T14:24:30.293Z,18.00
2019-04-06T14:27:27.540Z,14.20
2019-04-06T14:30:22.458Z,12.20
2019-04-06T14:33:11.007Z,12.67
2019-04-06T14:36:11.440Z,14.80
2019-04-06T14:39:09.096Z,12.93
2019-04-06T14:41:56.512Z,14.53
2019-04-06T14:44:50.695Z,22.53
2019-04-06T14:47:46.595Z,11.77
2019-04-06T14:50:37.463Z,12.07
2019-04-06T14:53:24.679Z,15.20
2019-04-06T14:56:10.128Z,11.43
2019-04-06T14:58:48.339Z,13.63
2019-04-06T15:01:57.173Z,9.80
2019-04-06T15:04:44.414Z,11.57
2019-04-06T15:07:38.617Z,16.33
2019-04-06T15:10:20.586Z,12.33
2019-04-06T15:13:01.002Z,13.83
2019-04-06T15:16:04.879Z,12.60
2019-04-06T15:18:55.932Z,12.00
2019-04-06T15:21:37.927Z,11.73
2019-04-06T15:24:26.275Z,11.50
2019-04-06T15:27:12.895Z,10.70
2019-04-06T15:29:50.983Z,11.97
2019-04-06T15:32:45.725Z,12.17
2019-04-06T15:35:32.316Z,9.93
2019-04-06T15:38:27.070Z,11.83
2019-04-06T15:41:21.372Z,12.20
2019-04-06T15:44:08.314Z,11.10
2019-04-06T15:46:57.044Z,11.33
2019-04-06T15:49:48.666Z,10.03
2019-04-06T15:52:38.341Z,13.40
2019-04-06T15:55:17.771Z,12.30
2019-04-06T15:57:57.183Z,13.37
2019-04-06T16:00:32.163Z,8.67
2019-04-06T16:03:15.269Z,11.53
2019-04-06T16:06:09.745Z,20.30
2019-04-06T16:08:45.105Z,10.30
2019-04-06T16:11:33.558Z,11.43
2019-04-06T16:14:15.970Z,8.87
2019-04-06T16:17:10.573Z,10.07
2019-04-06T16:19:57.696Z,10.43
2019-04-06T16:22:50.883Z,9.23
2019-04-06T16:26:04.772Z,12.30
2019-04-06T16:28:43.280Z,7.30
2019-04-06T16:31:33.483Z,13.63
2019-04-06T16:34:28.069Z,9.23
2019-04-06T16:37:35.069Z,16.27
2019-04-06T16:40:23.823Z,10.70
2019-04-06T16:43:07.363Z,9.80
2019-04-06T16:45:58.548Z,9.93
2019-04-06T16:48:45.959Z,12.93
2019-04-06T16:51:27.198Z,9.70
2019-04-06T16:54:03.522Z,13.93
2019-04-06T16:56:39.377Z,16.30
2019-04-06T16:59:16.531Z,11.10
2019-04-06T17:02:23.382Z,7.60
2019-04-06T17:05:07.290Z,9.97
2019-04-06T17:07:56.035Z,10.03
2019-04-06T17:10:38.977Z,10.60
2019-04-06T17:13:15.836Z,9.23
2019-04-06T17:15:59.109Z,8.07
2019-04-06T17:18:48.452Z,11.30
2019-04-06T17:21:26.634Z,9.57
2019-04-06T17:24:18.502Z,12.03
2019-04-06T17:27:12.869Z,11.20
2019-04-06T17:29:50.548Z,8.07
2019-04-06T17:32:41.865Z,16.00
2019-04-06T17:35:20.805Z,11.10
2019-04-06T17:38:16.187Z,7.13
2019-04-06T17:41:00.551Z,9.30
2019-04-06T17:43:52.988Z,13.87
2019-04-06T17:46:34.687Z,13.33
2019-04-06T17:49:18.050Z,13.00
2019-04-06T17:52:05.622Z,11.00
2019-04-06T17:55:02.488Z,21.87
2019-04-06T17:57:39.575Z,8.50
2019-04-06T18:00:26.761Z,12.10
2019-04-06T18:03:24.556Z,18.37
2019-04-06T18:06:04.324Z,7.50
2019-04-06T18:09:01.711Z,7.83
2019-04-06T18:11:36.500Z,9.20
2019-04-06T18:14:05.638Z,7.87
2019-04-06T18:16:36.620Z,11.47
2019-04-06T18:19:06.229Z,10.23
2019-04-06T18:21:36.116Z,9.40
2019-04-06T18:24:05.469Z,10.70
2019-04-06T18:26:34.841Z,9.70
2019-04-06T18:29:04.249Z,12.90
2019-04-06T18:31:48.966Z,9.13
2019-04-06T18:34:19.123Z,9.00
2019-04-06T18:37:04.503Z,14.83
2019-04-06T18:39:34.269Z,15.63
2019-04-06T18:42:03.673Z,10.33
2019-04-06T18:44:32.740Z,13.93
2019-04-06T18:47:02.219Z,13.87
2019-04-06T18:49:31.230Z,10.83
2019-04-06T18:52:00.911Z,14.43
2019-04-06T18:54:30.262Z,12.97
2019-04-06T18:56:59.613Z,17.37
2019-04-06T18:59:29.380Z,10.30
2019-04-06T19:01:59.599Z,9.00
2019-04-06T19:04:29.326Z,9.33
2019-04-06T19:06:58.487Z,6.33
2019-04-06T19:09:28.094Z,6.03
2019-04-06T19:11:57.447Z,10.73
2019-04-06T19:14:26.976Z,9.53
2019-04-06T19:16:56.977Z,18.63
2019-04-06T19:19:26.487Z,9.00
2019-04-06T19:21:57.154Z,7.97
2019-04-06T19:24:27.037Z,9.43
2019-04-06T19:26:56.532Z,10.53
2019-04-06T19:29:26.569Z,8.47
2019-04-06T19:31:57.529Z,20.40
2019-04-06T19:34:27.509Z,10.87
2019-04-06T19:36:57.231Z,12.60
2019-04-06T19:39:26.832Z,18.33
2019-04-06T19:41:56.149Z,20.47
2019-04-06T19:44:25.991Z,17.83
2019-04-06T19:46:55.100Z,16.47
2019-04-06T19:49:24.427Z,15.33
2019-04-06T19:51:54.439Z,14.40
2019-04-06T19:54:24.157Z,14.30
2019-04-06T19:56:53.448Z,22.03
2019-04-06T19:59:23.060Z,31.67
2019-04-06T20:01:52.669Z,36.23
2019-04-06T20:04:22.748Z,27.27
2019-04-06T20:06:52.143Z,24.83
2019-04-06T20:09:21.796Z,21.10
2019-04-06T20:11:51.489Z,22.50
2019-04-06T20:14:22.240Z,19.80
2019-04-06T20:16:51.945Z,17.63
2019-04-06T20:19:22.535Z,15.30
2019-04-06T20:21:52.087Z,16.60
2019-04-06T20:24:21.781Z,21.13
2019-04-06T20:26:51.083Z,15.40
2019-04-06T20:29:20.698Z,12.63
2019-04-06T20:31:49.995Z,24.60
2019-04-06T20:34:19.038Z,24.53
2019-04-06T20:36:49.109Z,20.43
2019-04-06T20:39:18.667Z,8.73
2019-04-06T20:41:48.155Z,19.90
2019-04-06T20:44:17.327Z,16.23
2019-04-06T20:46:46.719Z,18.90
2019-04-06T20:49:16.462Z,15.60
2019-04-06T20:51:45.567Z,18.50
2019-04-06T20:54:15.338Z,18.97
2019-04-06T20:56:53.897Z,14.43
2019-04-06T20:59:15.565Z,13.73
2019-04-06T21:01:45.299Z,10.37
2019-04-06T21:04:14.879Z,11.10
2019-04-06T21:06:44.861Z,19.40
2019-04-06T21:09:15.114Z,12.03
2019-04-06T21:11:44.802Z,9.90
2019-04-06T21:14:14.437Z,19.83
2019-04-06T21:16:43.857Z,14.17
2019-04-06T21:19:13.451Z,14.70
2019-04-06T21:21:42.719Z,15.30
2019-04-06T21:24:12.496Z,12.57
2019-04-06T21:26:41.674Z,15.47
2019-04-06T21:29:11.490Z,13.80
2019-04-06T21:31:40.907Z,11.07
2019-04-06T21:34:14.313Z,14.33
2019-04-06T21:36:41.662Z,12.50
2019-04-06T21:39:10.900Z,12.03
2019-04-06T21:41:40.699Z,13.95
2019-04-06T21:44:10.229Z,11.20
2019-04-06T21:46:39.318Z,11.30
2019-04-06T21:49:08.769Z,17.62
2019-04-06T21:51:38.242Z,18.82
2019-04-06T21:54:07.808Z,20.25
2019-04-06T21:56:37.479Z,17.45
2019-04-06T21:59:06.948Z,13.35
2019-04-06T22:01:36.764Z,11.40
2019-04-06T22:04:06.494Z,8.50
2019-04-06T22:06:35.644Z,11.75
2019-04-06T22:09:09.429Z,10.78
2019-04-06T22:11:39.770Z,9.10
2019-04-06T22:14:09.298Z,8.53
2019-04-06T22:16:39.118Z,8.40
2019-04-06T22:19:09.440Z,8.70
2019-04-06T22:21:38.559Z,7.93
2019-04-06T22:24:08.232Z,8.15
2019-04-06T22:26:38.279Z,8.78
2019-04-06T22:29:08.188Z,8.23
2019-04-06T22:31:38.014Z,11.73
2019-04-06T22:34:08.077Z,9.00
2019-04-06T22:36:37.423Z,8.98
2019-04-06T22:39:07.315Z,8.90
2019-04-06T22:41:36.525Z,8.50
2019-04-06T22:44:05.837Z,8.18
2019-04-06T22:46:35.387Z,8.00
2019-04-06T22:49:04.806Z,6.40
2019-04-06T22:58:58.775Z,12.73
2019-04-06T23:01:30.571Z,6.33
2019-04-06T23:04:46.684Z,10.13
2019-04-06T23:07:11.167Z,8.03
2019-04-06T23:09:40.887Z,7.83
2019-04-06T23:12:10.290Z,9.80
2019-04-06T23:14:39.607Z,6.57
2019-04-06T23:17:09.179Z,6.90
2019-04-06T23:19:38.567Z,8.35
2019-04-06T23:22:07.943Z,8.28
2019-04-06T23:24:37.549Z,7.62
2019-04-06T23:27:06.940Z,11.35
2019-04-06T23:29:36.621Z,8.83
2019-04-06T23:32:05.667Z,9.48
2019-04-06T23:34:36.196Z,7.35
2019-04-06T23:37:06.178Z,8.20
2019-04-06T23:39:35.260Z,7.53
2019-04-06T23:42:04.631Z,6.80
2019-04-06T23:44:34.521Z,10.30
2019-04-06T23:47:03.943Z,7.40
2019-04-06T23:49:32.965Z,7.97
2019-04-06T23:52:02.872Z,6.75
2019-04-06T23:54:31.921Z,10.33
2019-04-06T23:57:01.581Z,7.60
2019-04-06T23:59:30.611Z,12.18
